sensor_id;sensor_type;location;lat;lon;timestamp;pressure;altitude;pressure_sealevel;temperature;humidity
52949;BME280;38812;50.942;3.644;2023-02-22T00:01:03;101446.16;;;1.36;100.00
52949;BME280;38812;50.942;3.644;2023-02-22T00:03:47;101465.28;;;1.41;100.00
52949;BME280;38812;50.942;3.644;2023-02-22T00:06:15;101468.72;;;1.40;100.00
52949;BME280;38812;50.942;3.644;2023-02-22T00:08:41;101461.78;;;1.39;100.00
52949;BME280;38812;50.942;3.644;2023-02-22T00:11:07;101470.53;;;1.44;100.00
52949;BME280;38812;50.942;3.644;2023-02-22T00:13:33;101465.41;;;1.46;100.00
52949;BME280;38812;50.942;3.644;2023-02-22T00:15:59;101451.63;;;1.47;100.00
52949;BME280;38812;50.942;3.644;2023-02-22T00:18:26;101449.75;;;1.41;100.00
52949;BME280;38812;50.942;3.644;2023-02-22T00:20:53;101458.59;;;1.49;100.00
52949;BME280;38812;50.942;3.644;2023-02-22T00:23:22;101445.50;;;1.43;100.00
52949;BME280;38812;50.942;3.644;2023-02-22T00:25:49;101450.88;;;1.51;100.00
52949;BME280;38812;50.942;3.644;2023-02-22T00:28:16;101446.50;;;1.48;100.00
52949;BME280;38812;50.942;3.644;2023-02-22T00:30:43;101444.81;;;1.50;100.00
52949;BME280;38812;50.942;3.644;2023-02-22T00:33:10;101445.69;;;1.52;100.00
52949;BME280;38812;50.942;3.644;2023-02-22T00:35:36;101426.53;;;1.44;100.00
52949;BME280;38812;50.942;3.644;2023-02-22T00:38:02;101435.38;;;1.54;100.00
52949;BME280;38812;50.942;3.644;2023-02-22T00:40:30;101431.09;;;1.54;100.00
52949;BME280;38812;50.942;3.644;2023-02-22T00:42:57;101431.25;;;1.60;100.00
52949;BME280;38812;50.942;3.644;2023-02-22T00:45:25;101434.03;;;1.68;100.00
52949;BME280;38812;50.942;3.644;2023-02-22T00:47:51;101429.81;;;1.71;100.00
52949;BME280;38812;50.942;3.644;2023-02-22T00:50:19;101417.81;;;1.77;100.00
52949;BME280;38812;50.942;3.644;2023-02-22T00:52:45;101410.88;;;1.76;100.00
52949;BME280;38812;50.942;3.644;2023-02-22T00:55:19;101417.78;;;1.75;100.00
52949;BME280;38812;50.942;3.644;2023-02-22T00:57:45;101414.31;;;1.75;100.00
52949;BME280;38812;50.942;3.644;2023-02-22T01:00:16;101419.47;;;1.73;100.00
52949;BME280;38812;50.942;3.644;2023-02-22T01:02:42;101406.53;;;1.73;100.00
52949;BME280;38812;50.942;3.644;2023-02-22T01:05:10;101398.00;;;1.79;100.00
52949;BME280;38812;50.942;3.644;2023-02-22T01:07:39;101399.94;;;1.87;100.00
52949;BME280;38812;50.942;3.644;2023-02-22T01:10:06;101404.31;;;1.90;100.00
52949;BME280;38812;50.942;3.644;2023-02-22T01:12:33;101393.97;;;1.90;100.00
52949;BME280;38812;50.942;3.644;2023-02-22T01:14:59;101405.31;;;1.95;100.00
52949;BME280;38812;50.942;3.644;2023-02-22T01:17:24;101396.13;;;2.09;100.00
52949;BME280;38812;50.942;3.644;2023-02-22T01:19:51;101394.50;;;2.14;100.00
52949;BME280;38812;50.942;3.644;2023-02-22T01:22:18;101390.06;;;2.09;100.00
52949;BME280;38812;50.942;3.644;2023-02-22T01:24:43;101396.19;;;2.12;100.00
52949;BME280;38812;50.942;3.644;2023-02-22T01:27:09;101386.66;;;2.11;100.00
52949;BME280;38812;50.942;3.644;2023-02-22T01:29:35;101388.53;;;2.18;100.00
52949;BME280;38812;50.942;3.644;2023-02-22T01:32:00;101365.03;;;2.09;100.00
52949;BME280;38812;50.942;3.644;2023-02-22T01:34:26;101368.69;;;2.20;100.00
52949;BME280;38812;50.942;3.644;2023-02-22T01:36:51;101378.88;;;2.11;100.00
52949;BME280;38812;50.942;3.644;2023-02-22T01:39:17;101372.75;;;2.08;100.00
52949;BME280;38812;50.942;3.644;2023-02-22T01:41:45;101368.50;;;2.10;100.00
52949;BME280;38812;50.942;3.644;2023-02-22T01:46:56;101357.13;;;2.04;100.00
52949;BME280;38812;50.942;3.644;2023-02-22T01:49:29;101358.16;;;2.11;100.00
52949;BME280;38812;50.942;3.644;2023-02-22T01:51:58;101350.59;;;2.22;100.00
52949;BME280;38812;50.942;3.644;2023-02-22T01:54:30;101347.06;;;2.18;100.00
52949;BME280;38812;50.942;3.644;2023-02-22T01:57:04;101332.34;;;2.17;100.00
52949;BME280;38812;50.942;3.644;2023-02-22T01:59:35;101325.31;;;2.10;100.00
52949;BME280;38812;50.942;3.644;2023-02-22T02:02:01;101330.47;;;2.10;100.00
52949;BME280;38812;50.942;3.644;2023-02-22T02:04:29;101313.78;;;1.97;100.00
52949;BME280;38812;50.942;3.644;2023-02-22T02:06:58;101324.41;;;2.08;100.00
52949;BME280;38812;50.942;3.644;2023-02-22T02:12:10;101327.13;;;2.14;100.00
52949;BME280;38812;50.942;3.644;2023-02-22T02:14:37;101319.50;;;2.23;100.00
52949;BME280;38812;50.942;3.644;2023-02-22T02:17:06;101311.00;;;2.29;100.00
52949;BME280;38812;50.942;3.644;2023-02-22T02:26:23;101306.09;;;2.44;100.00
52949;BME280;38812;50.942;3.644;2023-02-22T02:28:46;101303.59;;;2.49;100.00
52949;BME280;38812;50.942;3.644;2023-02-22T02:34:17;101298.94;;;2.31;100.00
52949;BME280;38812;50.942;3.644;2023-02-22T02:39:26;101297.81;;;2.18;100.00
52949;BME280;38812;50.942;3.644;2023-02-22T02:41:52;101287.88;;;1.97;100.00
52949;BME280;38812;50.942;3.644;2023-02-22T02:47:13;101292.16;;;1.94;100.00
52949;BME280;38812;50.942;3.644;2023-02-22T02:52:21;101276.66;;;1.98;100.00
52949;BME280;38812;50.942;3.644;2023-02-22T02:54:48;101261.06;;;1.94;100.00
52949;BME280;38812;50.942;3.644;2023-02-22T02:57:14;101278.34;;;1.96;100.00
52949;BME280;38812;50.942;3.644;2023-02-22T02:59:39;101269.69;;;1.96;100.00
52949;BME280;38812;50.942;3.644;2023-02-22T03:07:58;101249.06;;;2.00;100.00
52949;BME280;38812;50.942;3.644;2023-02-22T03:10:40;101255.31;;;2.10;100.00
52949;BME280;38812;50.942;3.644;2023-02-22T03:13:17;101254.34;;;2.05;100.00
52949;BME280;38812;50.942;3.644;2023-02-22T03:18:48;101246.72;;;2.11;100.00
52949;BME280;38812;50.942;3.644;2023-02-22T03:26:45;101242.38;;;2.10;100.00
52949;BME280;38812;50.942;3.644;2023-02-22T03:29:13;101243.25;;;2.11;100.00
52949;BME280;38812;50.942;3.644;2023-02-22T03:31:45;101240.78;;;2.18;100.00
52949;BME280;38812;50.942;3.644;2023-02-22T03:34:16;101240.84;;;2.21;100.00
52949;BME280;38812;50.942;3.644;2023-02-22T03:36:55;101231.44;;;2.26;100.00
52949;BME280;38812;50.942;3.644;2023-02-22T03:39:23;101239.50;;;2.41;100.00
52949;BME280;38812;50.942;3.644;2023-02-22T03:41:57;101231.19;;;2.59;100.00
52949;BME280;38812;50.942;3.644;2023-02-22T03:44:28;101226.13;;;2.67;100.00
52949;BME280;38812;50.942;3.644;2023-02-22T03:46:59;101223.66;;;2.74;100.00
52949;BME280;38812;50.942;3.644;2023-02-22T03:49:33;101217.84;;;2.89;100.00
52949;BME280;38812;50.942;3.644;2023-02-22T03:52:00;101211.13;;;3.03;100.00
52949;BME280;38812;50.942;3.644;2023-02-22T03:54:26;101207.78;;;3.10;100.00
52949;BME280;38812;50.942;3.644;2023-02-22T03:56:55;101215.69;;;3.18;100.00
52949;BME280;38812;50.942;3.644;2023-02-22T03:59:22;101200.94;;;3.16;100.00
52949;BME280;38812;50.942;3.644;2023-02-22T04:01:54;101202.69;;;3.17;100.00
52949;BME280;38812;50.942;3.644;2023-02-22T04:04:21;101193.16;;;3.16;100.00
52949;BME280;38812;50.942;3.644;2023-02-22T04:06:47;101197.59;;;3.23;100.00
52949;BME280;38812;50.942;3.644;2023-02-22T04:09:14;101204.50;;;3.21;100.00
52949;BME280;38812;50.942;3.644;2023-02-22T04:11:39;101192.34;;;3.20;100.00
52949;BME280;38812;50.942;3.644;2023-02-22T04:14:05;101194.16;;;3.27;100.00
52949;BME280;38812;50.942;3.644;2023-02-22T04:16:30;101185.50;;;3.26;100.00
52949;BME280;38812;50.942;3.644;2023-02-22T04:18:56;101187.25;;;3.27;100.00
52949;BME280;38812;50.942;3.644;2023-02-22T04:21:21;101175.13;;;3.25;100.00
52949;BME280;38812;50.942;3.644;2023-02-22T04:23:47;101181.22;;;3.30;100.00
52949;BME280;38812;50.942;3.644;2023-02-22T04:26:12;101177.81;;;3.32;100.00
52949;BME280;38812;50.942;3.644;2023-02-22T04:28:37;101169.16;;;3.32;100.00
52949;BME280;38812;50.942;3.644;2023-02-22T04:31:03;101176.97;;;3.35;100.00
52949;BME280;38812;50.942;3.644;2023-02-22T04:33:28;101164.75;;;3.25;100.00
52949;BME280;38812;50.942;3.644;2023-02-22T04:35:54;101170.78;;;3.25;100.00
52949;BME280;38812;50.942;3.644;2023-02-22T04:38:22;101171.69;;;3.29;100.00
52949;BME280;38812;50.942;3.644;2023-02-22T04:40:50;101156.00;;;3.20;100.00
52949;BME280;38812;50.942;3.644;2023-02-22T04:43:16;101167.34;;;3.25;100.00
52949;BME280;38812;50.942;3.644;2023-02-22T04:45:42;101157.72;;;3.18;100.00
52949;BME280;38812;50.942;3.644;2023-02-22T04:48:07;101165.41;;;3.12;100.00
52949;BME280;38812;50.942;3.644;2023-02-22T04:50:32;101149.72;;;3.02;100.00
52949;BME280;38812;50.942;3.644;2023-02-22T04:52:58;101173.06;;;3.04;100.00
52949;BME280;38812;50.942;3.644;2023-02-22T04:55:23;101159.25;;;3.06;100.00
52949;BME280;38812;50.942;3.644;2023-02-22T04:57:49;101157.72;;;3.18;100.00
52949;BME280;38812;50.942;3.644;2023-02-22T05:00:16;101157.75;;;3.21;100.00
52949;BME280;38812;50.942;3.644;2023-02-22T05:02:41;101167.22;;;3.17;100.00
52949;BME280;38812;50.942;3.644;2023-02-22T05:05:07;101166.34;;;3.17;100.00
52949;BME280;38812;50.942;3.644;2023-02-22T05:07:32;101150.78;;;3.17;100.00
52949;BME280;38812;50.942;3.644;2023-02-22T05:09:58;101157.66;;;3.15;100.00
52949;BME280;38812;50.942;3.644;2023-02-22T05:12:26;101151.56;;;3.13;100.00
52949;BME280;38812;50.942;3.644;2023-02-22T05:14:51;101147.28;;;3.15;100.00
52949;BME280;38812;50.942;3.644;2023-02-22T05:17:17;101156.06;;;3.23;100.00
52949;BME280;38812;50.942;3.644;2023-02-22T05:19:42;101161.19;;;3.20;100.00
52949;BME280;38812;50.942;3.644;2023-02-22T05:22:07;101169.06;;;3.26;100.00
52949;BME280;38812;50.942;3.644;2023-02-22T05:24:33;101161.41;;;3.36;100.00
52949;BME280;38812;50.942;3.644;2023-02-22T05:26:59;101143.03;;;3.20;100.00
52949;BME280;38812;50.942;3.644;2023-02-22T05:29:24;101142.97;;;3.15;100.00
52949;BME280;38812;50.942;3.644;2023-02-22T05:31:50;101149.81;;;3.10;100.00
52949;BME280;38812;50.942;3.644;2023-02-22T05:34:15;101143.88;;;3.19;100.00
52949;BME280;38812;50.942;3.644;2023-02-22T05:36:41;101131.53;;;3.02;100.00
52949;BME280;38812;50.942;3.644;2023-02-22T05:39:06;101132.47;;;3.07;100.00
52949;BME280;38812;50.942;3.644;2023-02-22T05:41:32;101136.88;;;3.15;100.00
52949;BME280;38812;50.942;3.644;2023-02-22T05:43:57;101126.66;;;3.24;100.00
52949;BME280;38812;50.942;3.644;2023-02-22T05:46:23;101109.38;;;3.29;100.00
52949;BME280;38812;50.942;3.644;2023-02-22T05:48:49;101129.47;;;3.42;100.00
52949;BME280;38812;50.942;3.644;2023-02-22T05:51:15;101144.16;;;3.40;100.00
52949;BME280;38812;50.942;3.644;2023-02-22T05:53:40;101138.06;;;3.36;100.00
52949;BME280;38812;50.942;3.644;2023-02-22T05:56:06;101120.72;;;3.35;100.00
52949;BME280;38812;50.942;3.644;2023-02-22T05:58:32;101131.94;;;3.33;100.00
52949;BME280;38812;50.942;3.644;2023-02-22T06:00:57;101117.28;;;3.36;100.00
52949;BME280;38812;50.942;3.644;2023-02-22T06:03:23;101124.94;;;3.29;100.00
52949;BME280;38812;50.942;3.644;2023-02-22T06:05:49;101120.59;;;3.23;100.00
52949;BME280;38812;50.942;3.644;2023-02-22T06:08:14;101111.91;;;3.23;100.00
52949;BME280;38812;50.942;3.644;2023-02-22T06:10:40;101118.84;;;3.24;100.00
52949;BME280;38812;50.942;3.644;2023-02-22T06:13:05;101105.88;;;3.24;100.00
52949;BME280;38812;50.942;3.644;2023-02-22T06:15:31;101090.38;;;3.33;100.00
52949;BME280;38812;50.942;3.644;2023-02-22T06:17:57;101095.47;;;3.25;100.00
52949;BME280;38812;50.942;3.644;2023-02-22T06:20:24;101097.28;;;3.31;100.00
52949;BME280;38812;50.942;3.644;2023-02-22T06:22:51;101097.22;;;3.26;100.00
52949;BME280;38812;50.942;3.644;2023-02-22T06:25:19;101096.31;;;3.21;100.00
52949;BME280;38812;50.942;3.644;2023-02-22T06:27:46;101102.28;;;3.14;100.00
52949;BME280;38812;50.942;3.644;2023-02-22T06:30:12;101096.94;;;3.05;100.00
52949;BME280;38812;50.942;3.644;2023-02-22T06:32:38;101097.81;;;3.05;100.00
52949;BME280;38812;50.942;3.644;2023-02-22T06:35:03;101102.00;;;2.94;100.00
52949;BME280;38812;50.942;3.644;2023-02-22T06:37:29;101109.72;;;2.90;100.00
52949;BME280;38812;50.942;3.644;2023-02-22T06:39:54;101102.72;;;2.86;100.00
52949;BME280;38812;50.942;3.644;2023-02-22T06:42:20;101105.41;;;2.90;100.00
52949;BME280;38812;50.942;3.644;2023-02-22T06:44:45;101109.75;;;2.91;100.00
52949;BME280;38812;50.942;3.644;2023-02-22T06:47:11;101107.16;;;2.91;100.00
52949;BME280;38812;50.942;3.644;2023-02-22T06:49:36;101103.69;;;2.91;100.00
52949;BME280;38812;50.942;3.644;2023-02-22T06:52:06;101102.09;;;3.00;100.00
52949;BME280;38812;50.942;3.644;2023-02-22T06:54:31;101100.69;;;3.24;100.00
52949;BME280;38812;50.942;3.644;2023-02-22T06:56:57;101100.91;;;3.42;100.00
52949;BME280;38812;50.942;3.644;2023-02-22T06:59:22;101091.44;;;3.50;100.00
52949;BME280;38812;50.942;3.644;2023-02-22T07:01:47;101083.69;;;3.52;100.00
52949;BME280;38812;50.942;3.644;2023-02-22T07:04:13;101095.09;;;3.64;100.00
52949;BME280;38812;50.942;3.644;2023-02-22T07:06:47;101090.84;;;3.72;100.00
52949;BME280;38812;50.942;3.644;2023-02-22T07:09:13;101078.75;;;3.74;100.00
52949;BME280;38812;50.942;3.644;2023-02-22T07:11:39;101080.59;;;3.85;100.00
52949;BME280;38812;50.942;3.644;2023-02-22T07:14:05;101091.91;;;3.91;100.00
52949;BME280;38812;50.942;3.644;2023-02-22T07:16:30;101091.09;;;3.97;100.00
52949;BME280;38812;50.942;3.644;2023-02-22T07:18:56;101077.31;;;4.04;100.00
52949;BME280;38812;50.942;3.644;2023-02-22T07:21:21;101065.22;;;4.09;100.00
52949;BME280;38812;50.942;3.644;2023-02-22T07:23:52;101082.66;;;4.21;100.00
52949;BME280;38812;50.942;3.644;2023-02-22T07:26:18;101068.78;;;4.20;100.00
52949;BME280;38812;50.942;3.644;2023-02-22T07:28:43;101086.22;;;4.30;100.00
52949;BME280;38812;50.942;3.644;2023-02-22T07:31:09;101082.72;;;4.28;100.00
52949;BME280;38812;50.942;3.644;2023-02-22T07:33:34;101093.25;;;4.43;100.00
52949;BME280;38812;50.942;3.644;2023-02-22T07:36:00;101100.22;;;4.47;100.00
52949;BME280;38812;50.942;3.644;2023-02-22T07:38:25;101101.09;;;4.50;100.00
52949;BME280;38812;50.942;3.644;2023-02-22T07:40:50;101084.56;;;4.44;100.00
52949;BME280;38812;50.942;3.644;2023-02-22T07:43:23;101093.34;;;4.59;100.00
52949;BME280;38812;50.942;3.644;2023-02-22T07:45:50;101096.81;;;4.58;100.00
52949;BME280;38812;50.942;3.644;2023-02-22T07:48:18;101102.06;;;4.65;100.00
52949;BME280;38812;50.942;3.644;2023-02-22T07:50:44;101098.63;;;4.66;100.00
52949;BME280;38812;50.942;3.644;2023-02-22T07:53:15;101109.91;;;4.68;100.00
52949;BME280;38812;50.942;3.644;2023-02-22T07:55:42;101116.00;;;4.72;100.00
52949;BME280;38812;50.942;3.644;2023-02-22T07:58:08;101106.47;;;4.77;100.00
52949;BME280;38812;50.942;3.644;2023-02-22T08:00:38;101114.38;;;4.86;100.00
52949;BME280;38812;50.942;3.644;2023-02-22T08:03:07;101107.50;;;4.94;100.00
52949;BME280;38812;50.942;3.644;2023-02-22T08:05:34;101119.69;;;5.04;100.00
52949;BME280;38812;50.942;3.644;2023-02-22T08:08:00;101122.34;;;5.15;100.00
52949;BME280;38812;50.942;3.644;2023-02-22T08:10:27;101110.22;;;5.25;100.00
52949;BME280;38812;50.942;3.644;2023-02-22T08:12:53;101113.78;;;5.37;100.00
52949;BME280;38812;50.942;3.644;2023-02-22T08:15:29;101109.44;;;5.44;100.00
52949;BME280;38812;50.942;3.644;2023-02-22T08:17:56;101109.50;;;5.55;100.00
52949;BME280;38812;50.942;3.644;2023-02-22T08:20:23;101109.53;;;5.58;100.00
52949;BME280;38812;50.942;3.644;2023-02-22T08:22:49;101106.06;;;5.60;100.00
52949;BME280;38812;50.942;3.644;2023-02-22T08:25:16;101103.44;;;5.68;100.00
52949;BME280;38812;50.942;3.644;2023-02-22T08:27:42;101113.97;;;5.84;100.00
52949;BME280;38812;50.942;3.644;2023-02-22T08:30:14;101109.66;;;5.94;100.00
52949;BME280;38812;50.942;3.644;2023-02-22T08:32:39;101118.34;;;6.07;100.00
52949;BME280;38812;50.942;3.644;2023-02-22T08:35:05;101114.03;;;6.23;100.00
52949;BME280;38812;50.942;3.644;2023-02-22T08:37:30;101113.16;;;6.34;100.00
52949;BME280;38812;50.942;3.644;2023-02-22T08:39:56;101108.84;;;6.45;100.00
52949;BME280;38812;50.942;3.644;2023-02-22T08:42:21;101112.31;;;6.47;100.00
52949;BME280;38812;50.942;3.644;2023-02-22T08:44:47;101106.22;;;6.45;100.00
52949;BME280;38812;50.942;3.644;2023-02-22T08:47:12;101116.66;;;6.54;100.00
52949;BME280;38812;50.942;3.644;2023-02-22T08:49:37;101102.72;;;6.60;100.00
52949;BME280;38812;50.942;3.644;2023-02-22T08:52:03;101095.78;;;6.65;100.00
52949;BME280;38812;50.942;3.644;2023-02-22T08:54:28;101097.47;;;6.80;100.00
52949;BME280;38812;50.942;3.644;2023-02-22T08:56:54;101099.22;;;6.90;100.00
52949;BME280;38812;50.942;3.644;2023-02-22T08:59:19;101097.44;;;6.94;100.00
52949;BME280;38812;50.942;3.644;2023-02-22T09:01:44;101107.00;;;7.08;100.00
52949;BME280;38812;50.942;3.644;2023-02-22T09:04:10;101100.88;;;7.15;100.00
52949;BME280;38812;50.942;3.644;2023-02-22T09:06:35;101106.06;;;7.25;100.00
52949;BME280;38812;50.942;3.644;2023-02-22T09:09:01;101104.31;;;7.33;100.00
52949;BME280;38812;50.942;3.644;2023-02-22T09:11:27;101103.44;;;7.35;100.00
52949;BME280;38812;50.942;3.644;2023-02-22T09:13:52;101098.16;;;7.49;100.00
52949;BME280;38812;50.942;3.644;2023-02-22T09:16:17;101091.97;;;7.62;100.00
52949;BME280;38812;50.942;3.644;2023-02-22T09:18:43;101095.41;;;7.73;100.00
52949;BME280;38812;50.942;3.644;2023-02-22T09:21:09;101097.97;;;7.82;100.00
52949;BME280;38812;50.942;3.644;2023-02-22T09:23:34;101104.88;;;7.93;100.00
52949;BME280;38812;50.942;3.644;2023-02-22T09:25:59;101084.81;;;7.96;100.00
52949;BME280;38812;50.942;3.644;2023-02-22T09:28:26;101088.28;;;8.00;100.00
52949;BME280;38812;50.942;3.644;2023-02-22T09:30:51;101082.13;;;8.05;100.00
52949;BME280;38812;50.942;3.644;2023-02-22T09:33:18;101081.22;;;8.11;100.00
52949;BME280;38812;50.942;3.644;2023-02-22T09:35:45;101082.81;;;8.27;100.00
52949;BME280;38812;50.942;3.644;2023-02-22T09:38:16;101090.66;;;8.29;100.00
52949;BME280;38812;50.942;3.644;2023-02-22T09:40:45;101091.53;;;8.29;100.00
52949;BME280;38812;50.942;3.644;2023-02-22T09:49:20;101094.91;;;8.46;100.00
52949;BME280;38812;50.942;3.644;2023-02-22T09:51:56;101090.53;;;8.48;100.00
52949;BME280;38812;50.942;3.644;2023-02-22T09:54:37;101100.03;;;8.65;100.00
52949;BME280;38812;50.942;3.644;2023-02-22T09:57:08;101098.22;;;8.67;100.00
52949;BME280;38812;50.942;3.644;2023-02-22T09:59:40;101106.03;;;8.74;100.00
52949;BME280;38812;50.942;3.644;2023-02-22T10:02:22;101113.84;;;8.79;100.00
52949;BME280;38812;50.942;3.644;2023-02-22T10:04:55;101115.44;;;8.92;100.00
52949;BME280;38812;50.942;3.644;2023-02-22T10:09:56;101113.44;;;9.18;100.00
52949;BME280;38812;50.942;3.644;2023-02-22T10:12:41;101107.44;;;9.07;100.00
52949;BME280;38812;50.942;3.644;2023-02-22T10:17:52;101101.19;;;9.20;100.00
52949;BME280;38812;50.942;3.644;2023-02-22T10:20:41;101102.84;;;9.27;100.00
52949;BME280;38812;50.942;3.644;2023-02-22T10:25:52;101085.41;;;9.23;100.00
52949;BME280;38812;50.942;3.644;2023-02-22T10:28:33;101097.63;;;9.27;100.00
52949;BME280;38812;50.942;3.644;2023-02-22T10:31:08;101083.72;;;9.19;100.00
52949;BME280;38812;50.942;3.644;2023-02-22T10:33:40;101090.63;;;9.26;100.00
52949;BME280;38812;50.942;3.644;2023-02-22T10:36:16;101090.59;;;9.30;100.00
52949;BME280;38812;50.942;3.644;2023-02-22T10:38:52;101102.72;;;9.37;100.00
52949;BME280;38812;50.942;3.644;2023-02-22T10:41:25;101102.81;;;9.31;100.00
52949;BME280;38812;50.942;3.644;2023-02-22T10:43:52;101106.25;;;9.33;100.00
52949;BME280;38812;50.942;3.644;2023-02-22T10:46:19;101095.91;;;9.22;100.00
52949;BME280;38812;50.942;3.644;2023-02-22T10:48:49;101097.66;;;9.24;100.00
52949;BME280;38812;50.942;3.644;2023-02-22T10:51:15;101114.97;;;9.35;100.00
52949;BME280;38812;50.942;3.644;2023-02-22T10:53:41;101107.13;;;9.33;100.00
52949;BME280;38812;50.942;3.644;2023-02-22T10:56:18;101114.97;;;9.35;100.00
52949;BME280;38812;50.942;3.644;2023-02-22T10:58:58;101114.00;;;9.46;100.00
52949;BME280;38812;50.942;3.644;2023-02-22T11:01:34;101107.06;;;9.39;100.00
52949;BME280;38812;50.942;3.644;2023-02-22T11:04:04;101107.06;;;9.39;100.00
52949;BME280;38812;50.942;3.644;2023-02-22T11:06:34;101110.53;;;9.43;100.00
52949;BME280;38812;50.942;3.644;2023-02-22T11:09:14;101116.44;;;9.60;100.00
52949;BME280;38812;50.942;3.644;2023-02-22T11:11:42;101111.19;;;9.60;100.00
52949;BME280;38812;50.942;3.644;2023-02-22T11:14:09;101109.34;;;9.68;100.00
52949;BME280;38812;50.942;3.644;2023-02-22T11:16:43;101099.75;;;9.64;100.00
52949;BME280;38812;50.942;3.644;2023-02-22T11:21:40;101111.19;;;9.60;100.00
52949;BME280;38812;50.942;3.644;2023-02-22T11:24:08;101116.44;;;9.60;100.00
52949;BME280;38812;50.942;3.644;2023-02-22T11:27:00;101119.84;;;9.67;100.00
52949;BME280;38812;50.942;3.644;2023-02-22T11:29:31;101119.97;;;9.56;100.00
52949;BME280;38812;50.942;3.644;2023-02-22T11:32:00;101104.44;;;9.41;100.00
52949;BME280;38812;50.942;3.644;2023-02-22T11:34:37;101109.69;;;9.41;100.00
52949;BME280;38812;50.942;3.644;2023-02-22T11:37:30;101111.59;;;9.26;100.00
52949;BME280;38812;50.942;3.644;2023-02-22T11:42:44;101115.13;;;9.22;100.00
52949;BME280;38812;50.942;3.644;2023-02-22T11:45:18;101109.94;;;9.18;100.00
52949;BME280;38812;50.942;3.644;2023-02-22T11:47:54;101102.09;;;9.15;100.00
52949;BME280;38812;50.942;3.644;2023-02-22T11:53:38;101106.59;;;9.07;100.00
52949;BME280;38812;50.942;3.644;2023-02-22T11:56:18;101099.69;;;8.95;100.00
52949;BME280;38812;50.942;3.644;2023-02-22T11:58:49;101111.06;;;8.96;100.00
52949;BME280;38812;50.942;3.644;2023-02-22T12:01:39;101101.50;;;8.88;100.00
52949;BME280;38812;50.942;3.644;2023-02-22T12:10:05;101099.88;;;8.77;100.00
52949;BME280;38812;50.942;3.644;2023-02-22T12:20:49;101107.09;;;8.53;100.00
52949;BME280;38812;50.942;3.644;2023-02-22T12:26:06;101108.84;;;8.53;100.00
52949;BME280;38812;50.942;3.644;2023-02-22T12:28:41;101094.91;;;8.48;100.00
52949;BME280;38812;50.942;3.644;2023-02-22T12:33:51;101092.38;;;8.42;100.00
52949;BME280;38812;50.942;3.644;2023-02-22T12:36:23;101099.34;;;8.41;100.00
52949;BME280;38812;50.942;3.644;2023-02-22T12:38:56;101087.03;;;8.51;100.00
52949;BME280;38812;50.942;3.644;2023-02-22T12:41:33;101105.31;;;8.58;100.00
52949;BME280;38812;50.942;3.644;2023-02-22T12:44:09;101098.38;;;8.51;100.00
52949;BME280;38812;50.942;3.644;2023-02-22T12:46:42;101112.31;;;8.56;100.00
52949;BME280;38812;50.942;3.644;2023-02-22T12:49:13;101125.38;;;8.59;100.00
52949;BME280;38812;50.942;3.644;2023-02-22T12:52:39;101128.00;;;8.56;100.00
52949;BME280;38812;50.942;3.644;2023-02-22T13:00:46;101136.88;;;8.43;100.00
52949;BME280;38812;50.942;3.644;2023-02-22T13:14:20;101136.78;;;8.52;100.00
52949;BME280;38812;50.942;3.644;2023-02-22T13:20:22;101139.41;;;8.51;100.00
52949;BME280;38812;50.942;3.644;2023-02-22T13:25:39;101147.25;;;8.51;100.00
52949;BME280;38812;50.942;3.644;2023-02-22T13:39:19;101141.16;;;8.47;100.00
52949;BME280;38812;50.942;3.644;2023-02-22T13:50:57;101136.81;;;8.46;100.00
52949;BME280;38812;50.942;3.644;2023-02-22T13:53:28;101126.41;;;8.42;100.00
52949;BME280;38812;50.942;3.644;2023-02-22T13:55:59;101129.81;;;8.48;100.00
52949;BME280;38812;50.942;3.644;2023-02-22T13:58:25;101141.16;;;8.47;100.00
52949;BME280;38812;50.942;3.644;2023-02-22T14:00:56;101135.06;;;8.45;100.00
52949;BME280;38812;50.942;3.644;2023-02-22T14:06:03;101130.75;;;8.43;100.00
52949;BME280;38812;50.942;3.644;2023-02-22T14:11:02;101130.69;;;8.46;100.00
52949;BME280;38812;50.942;3.644;2023-02-22T14:16:20;101134.16;;;8.51;100.00
52949;BME280;38812;50.942;3.644;2023-02-22T14:18:47;101131.56;;;8.49;100.00
52949;BME280;38812;50.942;3.644;2023-02-22T14:21:19;101129.72;;;8.61;100.00
52949;BME280;38812;50.942;3.644;2023-02-22T14:23:49;101132.34;;;8.62;100.00
52949;BME280;38812;50.942;3.644;2023-02-22T14:28:50;101134.94;;;8.64;100.00
52949;BME280;38812;50.942;3.644;2023-02-22T14:31:25;101133.22;;;8.59;100.00
52949;BME280;38812;50.942;3.644;2023-02-22T14:33:52;101131.47;;;8.62;100.00
52949;BME280;38812;50.942;3.644;2023-02-22T14:36:20;101138.44;;;8.63;100.00
52949;BME280;38812;50.942;3.644;2023-02-22T14:38:48;101132.34;;;8.62;100.00
52949;BME280;38812;50.942;3.644;2023-02-22T14:41:21;101133.22;;;8.59;100.00
52949;BME280;38812;50.942;3.644;2023-02-22T14:43:52;101134.94;;;8.64;100.00
52949;BME280;38812;50.942;3.644;2023-02-22T14:46:21;101140.09;;;8.71;100.00
52949;BME280;38812;50.942;3.644;2023-02-22T14:48:50;101130.56;;;8.66;100.00
52949;BME280;38812;50.942;3.644;2023-02-22T14:51:24;101141.81;;;8.74;100.00
52949;BME280;38812;50.942;3.644;2023-02-22T14:54:02;101140.09;;;8.73;100.00
52949;BME280;38812;50.942;3.644;2023-02-22T14:56:38;101140.09;;;8.73;100.00
52949;BME280;38812;50.942;3.644;2023-02-22T14:59:15;101137.47;;;8.71;100.00
52949;BME280;38812;50.942;3.644;2023-02-22T15:01:41;101138.34;;;8.72;100.00
52949;BME280;38812;50.942;3.644;2023-02-22T15:04:26;101138.38;;;8.69;100.00
52949;BME280;38812;50.942;3.644;2023-02-22T15:06:53;101133.13;;;8.69;100.00
52949;BME280;38812;50.942;3.644;2023-02-22T15:09:27;101132.25;;;8.70;100.00
52949;BME280;38812;50.942;3.644;2023-02-22T15:14:29;101126.25;;;8.60;100.00